createdAt,value
2017-08-04T07:51:55.470Z,8.53
2017-08-04T07:54:43.122Z,9.43
2017-08-04T07:57:11.902Z,7.10
2017-08-04T07:59:39.617Z,6.40
2017-08-04T08:02:07.346Z,6.80
2017-08-04T08:04:35.049Z,6.70
2017-08-04T08:07:02.789Z,6.33
2017-08-04T08:09:30.890Z,6.00
2017-08-04T08:11:58.620Z,5.67
2017-08-04T08:14:26.342Z,5.20
2017-08-04T08:16:54.815Z,5.57
2017-08-04T08:19:22.517Z,4.80
2017-08-04T08:21:50.251Z,5.10
2017-08-04T08:24:17.969Z,5.80
2017-08-04T08:26:46.984Z,4.50
2017-08-04T08:29:14.714Z,4.70
2017-08-04T08:31:42.451Z,5.37
2017-08-04T08:34:10.147Z,5.90
2017-08-04T08:36:39.138Z,5.80
2017-08-04T08:39:06.830Z,5.60
2017-08-04T08:41:34.530Z,4.80
2017-08-04T08:44:02.230Z,5.10
2017-08-04T08:46:31.226Z,4.60
2017-08-04T08:48:58.926Z,4.27
2017-08-04T08:51:27.391Z,4.90
2017-08-04T08:53:55.195Z,4.93
2017-08-04T08:56:24.083Z,4.60
2017-08-04T08:58:51.789Z,4.87
2017-08-04T09:01:19.497Z,5.00
2017-08-04T09:03:47.215Z,7.03
2017-08-04T09:06:16.221Z,4.60
2017-08-04T09:08:43.930Z,4.50
2017-08-04T09:11:11.626Z,5.00
2017-08-04T09:13:39.334Z,5.17
2017-08-04T09:16:07.038Z,4.17
2017-08-04T09:18:34.738Z,4.10
2017-08-04T09:21:02.455Z,7.27
2017-08-04T09:23:30.449Z,4.10
2017-08-04T09:25:59.581Z,4.10
2017-08-04T09:28:27.370Z,3.53
2017-08-04T09:30:55.078Z,4.20
2017-08-04T09:33:23.014Z,3.60
2017-08-04T09:35:50.705Z,4.50
2017-08-04T09:38:18.425Z,4.57
2017-08-04T09:40:46.156Z,4.07
2017-08-04T09:43:14.955Z,4.47
2017-08-04T09:45:43.477Z,4.40
2017-08-04T09:48:11.191Z,5.50
2017-08-04T09:50:39.674Z,5.23
2017-08-04T09:53:07.788Z,5.10
2017-08-04T09:55:35.513Z,4.27
2017-08-04T09:58:03.242Z,4.77
2017-08-04T10:00:30.947Z,4.97
2017-08-04T10:02:59.444Z,5.50
2017-08-04T10:09:59.314Z,7.03
2017-08-04T10:12:27.046Z,4.90
2017-08-04T10:14:54.838Z,4.53
2017-08-04T10:17:23.235Z,4.10
2017-08-04T10:19:50.962Z,4.03
2017-08-04T10:22:18.674Z,3.87
2017-08-04T10:24:46.497Z,4.70
2017-08-04T10:27:15.123Z,3.90
2017-08-04T10:29:42.887Z,5.23
2017-08-04T10:32:10.646Z,5.10
2017-08-04T10:34:38.372Z,4.13
2017-08-04T10:37:06.079Z,4.20
2017-08-04T10:39:33.810Z,4.97
2017-08-04T10:42:01.575Z,3.97
2017-08-04T10:44:30.428Z,3.57
2017-08-04T10:46:58.175Z,3.80
2017-08-04T10:49:26.676Z,4.90
2017-08-04T10:51:54.414Z,4.37
2017-08-04T10:54:22.346Z,3.60
2017-08-04T10:56:53.554Z,4.00
2017-08-04T10:59:21.354Z,4.17
2017-08-04T11:01:49.095Z,3.80
2017-08-04T11:04:16.812Z,3.53
2017-08-04T11:06:44.538Z,3.70
2017-08-04T11:09:12.265Z,3.50
2017-08-04T11:11:40.014Z,4.10
2017-08-04T11:14:08.581Z,4.00
2017-08-04T11:16:37.238Z,4.77
2017-08-04T11:19:04.987Z,4.50
2017-08-04T11:21:32.851Z,10.20
2017-08-04T11:24:02.727Z,4.93
2017-08-04T11:26:30.466Z,4.30
2017-08-04T11:29:00.078Z,3.77
2017-08-04T11:31:27.834Z,4.03
2017-08-04T11:33:56.629Z,3.83
2017-08-04T11:36:24.418Z,4.00
2017-08-04T11:38:54.450Z,3.47
2017-08-04T11:41:22.258Z,4.10
2017-08-04T11:43:49.983Z,3.50
2017-08-04T11:46:17.710Z,3.43
2017-08-04T11:48:45.536Z,3.90
2017-08-04T11:51:13.275Z,3.43
2017-08-04T11:55:42.682Z,4.10
2017-08-04T11:58:10.419Z,4.40
2017-08-04T12:00:39.884Z,4.40
2017-08-04T12:03:07.608Z,4.20
2017-08-04T12:05:39.759Z,4.83
2017-08-04T12:08:07.509Z,4.73
2017-08-04T12:10:35.235Z,4.23
2017-08-04T12:13:02.968Z,4.43
2017-08-04T12:15:30.703Z,4.60
2017-08-04T12:17:58.449Z,3.93
2017-08-04T12:20:26.174Z,3.90
2017-08-04T12:23:07.707Z,3.90
2017-08-04T12:25:35.439Z,4.80
2017-08-04T12:28:03.184Z,4.83
2017-08-04T12:30:30.955Z,4.80
2017-08-04T12:32:58.744Z,5.28
2017-08-04T12:35:26.472Z,5.10
2017-08-04T12:37:54.188Z,5.10
2017-08-04T12:40:23.027Z,5.27
2017-08-04T12:42:50.783Z,5.33
2017-08-04T12:45:18.550Z,4.47
2017-08-04T12:47:46.275Z,5.60
2017-08-04T12:50:15.059Z,5.03
2017-08-04T12:52:42.814Z,5.50
2017-08-04T12:55:10.548Z,5.63
2017-08-04T12:57:38.275Z,5.30
2017-08-04T13:00:07.001Z,5.10
2017-08-04T13:02:34.749Z,5.30
2017-08-04T13:05:02.478Z,5.33
2017-08-04T13:07:30.199Z,5.70
2017-08-04T13:09:59.075Z,5.33
2017-08-04T13:12:26.818Z,5.67
2017-08-04T13:14:54.544Z,5.27
2017-08-04T13:17:22.279Z,4.63
2017-08-04T13:19:50.007Z,5.30
2017-08-04T13:22:17.755Z,5.00
2017-08-04T13:24:45.484Z,5.30
2017-08-04T13:27:13.211Z,4.80
2017-08-04T13:29:41.961Z,6.30
2017-08-04T13:32:09.727Z,6.07
2017-08-04T13:34:37.478Z,5.50
2017-08-04T13:37:05.214Z,5.90
2017-08-04T13:39:32.926Z,5.97
2017-08-04T13:42:00.655Z,5.70
2017-08-04T13:44:28.373Z,5.17
2017-08-04T13:46:56.192Z,5.50
2017-08-04T13:49:23.947Z,5.50
2017-08-04T13:51:51.654Z,5.50
2017-08-04T13:54:19.383Z,5.70
2017-08-04T13:56:47.102Z,6.43
2017-08-04T13:59:14.834Z,5.40
2017-08-04T14:01:42.577Z,5.50
2017-08-04T14:04:10.308Z,6.90
2017-08-04T14:06:38.052Z,6.40
2017-08-04T14:09:06.943Z,5.37
2017-08-04T14:11:34.688Z,5.53
2017-08-04T14:14:02.422Z,5.27
2017-08-04T14:16:30.551Z,5.17
2017-08-04T14:18:58.319Z,4.53
2017-08-04T14:21:27.712Z,5.20
2017-08-04T14:23:55.471Z,4.70
2017-08-04T14:26:23.233Z,5.17
2017-08-04T14:28:51.309Z,5.33
2017-08-04T14:31:19.151Z,4.80
2017-08-04T14:33:47.730Z,5.33
2017-08-04T14:36:15.486Z,5.37
2017-08-04T14:38:43.285Z,6.10
2017-08-04T14:41:11.037Z,6.00
2017-08-04T14:43:38.789Z,4.90
2017-08-04T14:46:06.511Z,4.43
2017-08-04T14:48:34.250Z,5.03
2017-08-04T14:51:02.093Z,4.50
2017-08-04T14:53:30.413Z,5.47
2017-08-04T14:55:58.153Z,4.63
2017-08-04T14:58:25.939Z,4.80
2017-08-04T15:00:53.654Z,5.47
2017-08-04T15:03:21.415Z,5.17
2017-08-04T15:05:49.169Z,5.53
2017-08-04T15:08:16.894Z,5.53
2017-08-04T15:10:45.728Z,5.27
2017-08-04T15:13:13.495Z,5.70
2017-08-04T15:15:41.338Z,5.10
2017-08-04T15:18:09.075Z,5.47
2017-08-04T15:20:36.822Z,5.97
2017-08-04T15:23:05.310Z,5.67
2017-08-04T15:25:33.014Z,5.10
2017-08-04T15:28:00.736Z,5.50
2017-08-04T15:30:29.255Z,5.90
2017-08-04T15:32:57.040Z,5.47
2017-08-04T15:35:24.776Z,5.50
2017-08-04T15:37:52.558Z,5.90
2017-08-04T15:40:20.303Z,5.20
2017-08-04T15:42:48.029Z,5.60
2017-08-04T15:45:15.771Z,5.60
2017-08-04T15:47:44.354Z,5.40
2017-08-04T15:50:12.085Z,6.07
2017-08-04T15:52:40.160Z,5.17
2017-08-04T15:55:07.899Z,6.17
2017-08-04T15:57:36.003Z,5.83
2017-08-04T16:00:04.218Z,5.10
2017-08-04T16:02:33.281Z,6.00
2017-08-04T16:05:01.050Z,6.50
2017-08-04T16:07:28.807Z,6.33
2017-08-04T16:09:59.207Z,6.37
2017-08-04T16:12:27.327Z,5.90
2017-08-04T16:14:55.496Z,5.80
2017-08-04T16:17:23.255Z,6.00
2017-08-04T16:19:51.088Z,6.60
2017-08-04T16:22:19.204Z,6.03
2017-08-04T16:24:47.798Z,5.40
2017-08-04T16:27:15.664Z,5.53
2017-08-04T16:29:43.401Z,6.20
2017-08-04T16:32:11.538Z,5.90
2017-08-04T16:34:39.371Z,5.53
2017-08-04T16:37:07.901Z,5.97
2017-08-04T16:39:35.638Z,5.50
2017-08-04T16:42:03.395Z,5.53
2017-08-04T16:44:31.426Z,5.53
2017-08-04T16:47:01.180Z,4.67
2017-08-04T16:49:29.215Z,5.57
2017-08-04T16:51:57.965Z,4.50
2017-08-04T16:54:26.147Z,6.07
2017-08-04T16:56:54.296Z,5.83
2017-08-04T16:59:22.072Z,4.80
2017-08-04T17:01:49.995Z,5.40
2017-08-04T17:04:17.767Z,4.90
2017-08-04T17:06:48.977Z,5.80
2017-08-04T17:09:16.747Z,5.30
2017-08-04T17:11:44.533Z,5.33
2017-08-04T17:14:13.570Z,5.40
2017-08-04T17:16:42.463Z,4.93
2017-08-04T17:19:10.248Z,5.50
2017-08-04T17:21:38.282Z,5.10
2017-08-04T17:24:06.092Z,5.73
2017-08-04T17:26:33.865Z,5.80
2017-08-04T17:29:02.188Z,6.33
2017-08-04T17:31:30.371Z,5.63
2017-08-04T17:33:58.148Z,5.90
2017-08-04T17:36:25.887Z,5.73
2017-08-04T17:38:53.634Z,5.57
2017-08-04T17:41:22.131Z,5.53
2017-08-04T17:43:50.200Z,6.47
2017-08-04T17:46:18.390Z,5.67
2017-08-04T17:48:46.147Z,5.87
2017-08-04T17:51:16.258Z,5.80
2017-08-04T17:53:44.331Z,6.20
2017-08-04T17:56:12.215Z,5.40
2017-08-04T17:58:40.257Z,5.80
2017-08-04T18:01:08.090Z,6.03
2017-08-04T18:03:36.689Z,5.93
2017-08-04T18:06:05.442Z,6.50
2017-08-04T18:08:33.266Z,6.10
2017-08-04T18:11:01.283Z,6.07
2017-08-04T18:13:29.131Z,6.33
2017-08-04T18:15:56.871Z,6.37
2017-08-04T18:18:24.674Z,6.50
2017-08-04T18:20:52.534Z,6.70
2017-08-04T18:23:20.646Z,6.70
2017-08-04T18:25:49.822Z,6.23
2017-08-04T18:28:17.658Z,6.10
2017-08-04T18:30:45.490Z,6.60
2017-08-04T18:33:13.465Z,5.60
2017-08-04T18:35:41.286Z,6.20
2017-08-04T18:38:09.065Z,5.93
2017-08-04T18:40:36.801Z,6.23
2017-08-04T18:43:04.775Z,6.53
2017-08-04T18:45:32.708Z,7.33
2017-08-04T18:48:00.528Z,8.00
2017-08-04T18:50:28.443Z,7.10
2017-08-04T18:52:56.516Z,6.20
2017-08-04T18:55:25.291Z,6.10
2017-08-04T18:57:53.414Z,6.57
2017-08-04T19:00:21.171Z,6.20
2017-08-04T19:02:49.867Z,5.97
2017-08-04T19:05:17.695Z,5.93
2017-08-04T19:07:45.492Z,6.00
2017-08-04T19:10:13.468Z,7.17
2017-08-04T19:12:41.432Z,7.00
2017-08-04T19:15:09.434Z,7.50
2017-08-04T19:17:37.173Z,7.40
2017-08-04T19:20:05.184Z,7.40
2017-08-04T19:22:32.961Z,6.60
2017-08-04T19:25:00.811Z,7.23
2017-08-04T19:27:28.785Z,6.97
2017-08-04T19:29:56.628Z,6.10
2017-08-04T19:32:24.360Z,7.03
2017-08-04T19:34:52.127Z,6.40
2017-08-04T19:37:19.950Z,5.63
2017-08-04T19:39:47.665Z,6.00
2017-08-04T19:42:15.379Z,6.00
2017-08-04T19:44:43.087Z,6.03
2017-08-04T19:47:10.819Z,5.57
2017-08-04T19:49:38.543Z,5.27
2017-08-04T19:52:06.260Z,5.47
2017-08-04T19:54:34.007Z,4.97
2017-08-04T19:57:02.331Z,5.53
2017-08-04T19:59:30.956Z,5.43
2017-08-04T20:01:58.691Z,5.67
2017-08-04T20:04:27.240Z,5.87
2017-08-04T20:06:55.707Z,4.93
2017-08-04T20:09:23.468Z,5.03
2017-08-04T20:11:51.201Z,5.00
2017-08-04T20:14:18.924Z,4.73
2017-08-04T20:16:47.615Z,4.57
2017-08-04T20:19:15.336Z,5.33
2017-08-04T20:21:43.055Z,5.10
2017-08-04T20:24:12.449Z,5.67
2017-08-04T20:26:42.144Z,7.70
2017-08-04T20:29:10.251Z,6.97
2017-08-04T20:31:38.425Z,6.63
2017-08-04T20:34:06.559Z,5.17
2017-08-04T20:36:35.086Z,5.20
2017-08-04T20:39:02.849Z,5.73
2017-08-04T20:41:30.583Z,6.77
2017-08-04T20:43:58.322Z,5.70
2017-08-04T20:46:26.170Z,5.93
2017-08-04T20:48:53.979Z,5.90
2017-08-04T20:51:21.694Z,5.30
2017-08-04T20:53:49.417Z,5.90
2017-08-04T20:56:17.294Z,6.20
2017-08-04T20:58:45.012Z,6.00
2017-08-04T21:01:12.730Z,5.73
2017-08-04T21:03:40.470Z,5.70
2017-08-04T21:06:08.993Z,5.13
2017-08-04T21:08:36.748Z,5.03
2017-08-04T21:11:04.494Z,4.93
2017-08-04T21:13:32.258Z,4.77
2017-08-04T21:16:01.260Z,4.37
2017-08-04T21:18:28.976Z,4.80
2017-08-04T21:20:56.719Z,5.00
2017-08-04T21:23:24.446Z,5.20
2017-08-04T21:25:52.185Z,4.33
2017-08-04T21:28:19.922Z,4.10
2017-08-04T21:30:47.634Z,8.27
2017-08-04T21:33:15.398Z,11.63
2017-08-04T21:35:43.152Z,12.67
2017-08-04T21:38:10.883Z,10.07
2017-08-04T21:40:38.614Z,9.30
2017-08-04T21:43:06.670Z,9.43
2017-08-04T21:45:34.390Z,8.37
2017-08-04T21:48:02.113Z,8.03
2017-08-04T21:50:29.829Z,8.73
2017-08-04T21:52:58.994Z,9.33
2017-08-04T21:55:26.718Z,9.60
2017-08-04T21:57:54.452Z,9.37
2017-08-04T22:00:22.214Z,10.00
2017-08-04T22:02:50.086Z,9.60
2017-08-04T22:05:18.079Z,8.97
2017-08-04T22:07:45.863Z,8.33
2017-08-04T22:10:13.589Z,7.40
2017-08-04T22:12:41.523Z,6.97
2017-08-04T22:15:09.251Z,8.13
2017-08-04T22:17:37.258Z,8.60
2017-08-04T22:20:04.996Z,10.20
2017-08-04T22:22:32.753Z,9.77
2017-08-04T22:25:00.472Z,10.93
2017-08-04T22:27:28.216Z,9.87
2017-08-04T22:29:56.222Z,9.80
2017-08-04T22:32:23.967Z,8.80
2017-08-04T22:34:51.690Z,8.97
2017-08-04T22:37:20.715Z,8.30
2017-08-04T22:39:48.468Z,8.20
2017-08-04T22:42:16.212Z,8.80
2017-08-04T22:44:43.999Z,8.37
2017-08-04T22:47:11.774Z,10.00
2017-08-04T22:49:39.505Z,9.30
2017-08-04T22:52:07.245Z,8.50
2017-08-04T22:54:34.979Z,9.07
2017-08-04T22:57:03.544Z,8.70
2017-08-04T22:59:31.264Z,7.67
2017-08-04T23:01:58.975Z,7.70
2017-08-04T23:04:26.694Z,7.47
2017-08-04T23:06:54.408Z,8.07
2017-08-04T23:09:23.067Z,7.90
2017-08-04T23:11:50.795Z,7.23
2017-08-04T23:14:18.514Z,7.50
2017-08-04T23:16:47.003Z,6.97
2017-08-04T23:19:14.723Z,7.20
2017-08-04T23:21:42.458Z,7.40
2017-08-04T23:24:10.187Z,7.27
2017-08-04T23:26:38.675Z,6.87
2017-08-04T23:29:06.418Z,6.90
2017-08-04T23:31:34.148Z,6.43
2017-08-04T23:34:01.894Z,6.40
2017-08-04T23:36:29.637Z,6.73
2017-08-04T23:38:57.360Z,7.13
2017-08-04T23:41:25.863Z,7.30
2017-08-04T23:43:53.590Z,6.73
2017-08-04T23:46:21.314Z,7.00
2017-08-04T23:48:49.030Z,6.70
2017-08-04T23:51:16.767Z,8.27
2017-08-04T23:53:44.524Z,8.53
2017-08-04T23:56:12.243Z,8.17
2017-08-04T23:58:40.762Z,9.43
